Time,TemperatureF,DewpointF,PressureIn,WindDirection,WindDirectionDegrees,WindSpeedMPH,WindSpeedGustMPH,Humidity,HourlyPrecipIn,Conditions,Clouds,dailyrainin,SoftwareType,DateUTC
2013-03-27 00:20:00,53.1,43.2,30.15,East,88,2.7,2.7,69,0.00,,---,0.00,VWS V14.01,2013-03-27 04:20:00,
2013-03-27 00:25:00,53.1,43.2,30.15,East,88,2.7,2.7,69,0.00,,---,0.00,VWS V14.01,2013-03-27 04:25:00,
2013-03-27 00:30:00,53.1,43.2,30.15,East,88,2.7,2.7,69,0.00,,---,0.00,VWS V14.01,2013-03-27 04:30:00,
2013-03-27 00:59:00,53.1,43.2,30.15,East,88,2.7,2.7,69,0.00,,---,0.00,VWS V14.01,2013-03-27 04:59:00,
2013-03-27 01:25:00,53.1,43.2,30.15,East,88,2.7,2.7,69,0.00,,---,0.00,VWS V14.01,2013-03-27 05:25:00,
2013-03-27 01:36:00,53.1,43.2,30.15,East,88,2.7,2.7,69,0.00,,---,0.00,VWS V14.01,2013-03-27 05:36:00,
2013-03-27 01:44:00,53.1,43.2,30.15,East,88,2.7,2.7,69,0.00,,---,0.00,VWS V14.01,2013-03-27 05:44:00,
2013-03-27 02:15:00,53.1,43.2,30.15,East,88,2.7,2.7,69,0.00,,---,0.00,VWS V14.01,2013-03-27 06:15:00,
2013-03-27 02:29:00,53.1,43.2,30.15,East,88,2.7,2.7,69,0.00,,---,0.00,VWS V14.01,2013-03-27 06:29:00,
2013-03-27 02:34:00,53.1,43.2,30.15,East,88,2.7,2.7,69,0.00,,---,0.00,VWS V14.01,2013-03-27 06:34:00,
2013-03-27 02:39:00,53.1,43.2,30.15,East,88,2.7,2.7,69,0.00,,---,0.00,VWS V14.01,2013-03-27 06:39:00,
2013-03-27 02:49:00,53.1,43.2,30.15,East,88,2.7,2.7,69,0.00,,---,0.00,VWS V14.01,2013-03-27 06:49:00,
2013-03-27 02:59:00,53.1,43.2,30.15,East,88,2.7,2.7,69,0.00,,---,0.00,VWS V14.01,2013-03-27 06:59:00,
2013-03-27 03:09:00,53.1,43.2,30.15,East,88,2.7,2.7,69,0.00,,---,0.00,VWS V14.01,2013-03-27 07:09:00,
2013-03-27 03:20:00,53.1,43.2,30.15,East,88,2.7,2.7,69,0.00,,---,0.00,VWS V14.01,2013-03-27 07:20:00,
2013-03-27 03:25:00,53.1,43.2,30.15,East,88,2.7,2.7,69,0.00,,---,0.00,VWS V14.01,2013-03-27 07:25:00,
2013-03-27 03:30:00,53.1,43.2,30.15,East,88,2.7,2.7,69,0.00,,---,0.00,VWS V14.01,2013-03-27 07:30:00,
2013-03-27 03:38:00,53.1,43.2,30.15,East,88,2.7,2.7,69,0.00,,---,0.00,VWS V14.01,2013-03-27 07:38:00,
2013-03-27 03:48:00,53.1,43.2,30.15,East,88,2.7,2.7,69,0.00,,---,0.00,VWS V14.01,2013-03-27 07:48:00,
2013-03-27 04:20:00,53.1,43.2,30.15,East,88,2.7,2.7,69,0.00,,---,0.00,VWS V14.01,2013-03-27 08:20:00,
2013-03-27 04:25:00,53.1,43.2,30.15,East,88,2.7,2.7,69,0.00,,---,0.00,VWS V14.01,2013-03-27 08:25:00,
2013-03-27 04:34:00,53.1,43.2,30.15,East,88,2.7,2.7,69,0.00,,---,0.00,VWS V14.01,2013-03-27 08:34:00,
2013-03-27 04:40:00,53.1,43.2,30.15,East,88,2.7,2.7,69,0.00,,---,0.00,VWS V14.01,2013-03-27 08:40:00,
2013-03-27 04:56:00,53.1,43.2,30.15,East,88,2.7,2.7,69,0.00,,---,0.00,VWS V14.01,2013-03-27 08:56:00,
2013-03-27 05:05:00,53.1,43.2,30.15,East,88,2.7,2.7,69,0.00,,---,0.00,VWS V14.01,2013-03-27 09:05:00,
2013-03-27 05:10:00,53.1,43.2,30.15,East,88,2.7,2.7,69,0.00,,---,0.00,VWS V14.01,2013-03-27 09:10:00,
2013-03-27 05:18:00,53.1,43.2,30.15,East,88,2.7,2.7,69,0.00,,---,0.00,VWS V14.01,2013-03-27 09:18:00,
2013-03-27 05:24:00,53.1,43.2,30.15,East,88,2.7,2.7,69,0.00,,---,0.00,VWS V14.01,2013-03-27 09:24:00,
2013-03-27 05:29:00,53.1,43.2,30.15,East,88,2.7,2.7,69,0.00,,---,0.00,VWS V14.01,2013-03-27 09:29:00,
2013-03-27 05:56:00,45.5,37.4,30.21,NE,51,3.1,3.1,73,0.00,,---,0.00,VWS V14.01,2013-03-27 09:56:00,
2013-03-27 06:01:00,45.3,37.2,30.21,North,0,3.6,3.6,73,0.00,,---,0.00,VWS V14.01,2013-03-27 10:01:00,
2013-03-27 06:06:00,45.3,37.2,30.21,North,8,2.7,2.7,73,0.00,,---,0.00,VWS V14.01,2013-03-27 10:06:00,
2013-03-27 06:11:00,45.0,36.8,30.21,North,353,3.1,4.0,73,0.00,,---,0.00,VWS V14.01,2013-03-27 10:11:00,
2013-03-27 06:16:00,44.8,36.7,30.21,NE,35,3.6,4.0,73,0.00,,---,0.00,VWS V14.01,2013-03-27 10:16:00,
2013-03-27 06:21:00,44.8,36.7,30.21,North,3,0.0,2.2,73,0.00,,---,0.00,VWS V14.01,2013-03-27 10:21:00,
2013-03-27 06:26:00,44.6,36.8,30.24,North,353,2.7,2.7,74,0.00,,---,0.00,VWS V14.01,2013-03-27 10:26:00,
2013-03-27 06:31:00,44.6,36.8,30.24,NNW,348,2.7,3.6,74,0.00,,---,0.00,VWS V14.01,2013-03-27 10:31:00,
2013-03-27 06:36:00,44.4,36.7,30.24,North,357,2.7,3.1,74,0.00,,---,0.00,VWS V14.01,2013-03-27 10:36:00,
2013-03-27 06:41:00,44.2,36.8,30.24,North,357,2.7,2.7,75,0.00,,---,0.00,VWS V14.01,2013-03-27 10:41:00,
2013-03-27 06:46:00,44.1,36.7,30.24,North,357,2.7,3.1,75,0.00,,---,0.00,VWS V14.01,2013-03-27 10:46:00,
2013-03-27 06:51:00,44.1,36.7,30.24,NNE,23,0.0,2.7,75,0.00,,---,0.00,VWS V14.01,2013-03-27 10:51:00,
2013-03-27 06:56:00,43.9,36.1,30.24,North,5,2.7,3.1,74,0.00,,---,0.00,VWS V14.01,2013-03-27 10:56:00,
2013-03-27 07:01:00,44.1,36.7,30.24,NW,314,2.7,2.7,75,0.00,,---,0.00,VWS V14.01,2013-03-27 11:01:00,
2013-03-27 07:06:00,43.9,36.5,30.24,NNE,24,3.1,3.1,75,0.00,,---,0.00,VWS V14.01,2013-03-27 11:06:00,
2013-03-27 07:11:00,43.7,36.3,30.24,North,10,5.4,5.4,75,0.00,,---,0.00,VWS V14.01,2013-03-27 11:11:00,
2013-03-27 07:16:00,43.5,36.1,30.24,North,353,3.6,4.9,75,0.00,,---,0.00,VWS V14.01,2013-03-27 11:16:00,
2013-03-27 07:21:00,43.5,36.1,30.24,NNE,23,2.7,3.1,75,0.00,,---,0.00,VWS V14.01,2013-03-27 11:21:00,
2013-03-27 07:26:00,43.3,36.0,30.24,North,353,2.2,3.6,75,0.00,,---,0.00,VWS V14.01,2013-03-27 11:26:00,
2013-03-27 07:31:00,43.3,36.0,30.24,North,353,3.1,4.0,75,0.00,,---,0.00,VWS V14.01,2013-03-27 11:31:00,
2013-03-27 07:36:00,43.3,36.0,30.24,NNW,345,3.1,3.1,75,0.00,,---,0.00,VWS V14.01,2013-03-27 11:36:00,
2013-03-27 07:41:00,43.3,36.0,30.27,NNW,348,4.0,4.0,75,0.00,,---,0.00,VWS V14.01,2013-03-27 11:41:00,
2013-03-27 07:47:00,43.3,36.0,30.27,North,5,3.6,4.0,75,0.00,,---,0.00,VWS V14.01,2013-03-27 11:47:00,
2013-03-27 07:52:00,43.2,35.8,30.27,NNE,31,4.0,4.0,75,0.00,,---,0.00,VWS V14.01,2013-03-27 11:52:00,
2013-03-27 07:57:00,43.2,35.8,30.27,North,357,3.1,4.0,75,0.00,,---,0.00,VWS V14.01,2013-03-27 11:57:00,
2013-03-27 08:02:00,43.2,35.8,30.27,NE,35,5.8,8.3,75,0.00,,---,0.00,VWS V14.01,2013-03-27 12:02:00,
2013-03-27 08:07:00,43.3,36.3,30.27,NNW,339,2.2,3.6,76,0.00,,---,0.00,VWS V14.01,2013-03-27 12:07:00,
2013-03-27 08:12:00,43.5,36.1,30.27,North,350,3.1,4.0,75,0.00,,---,0.00,VWS V14.01,2013-03-27 12:12:00,
2013-03-27 08:17:00,43.7,36.3,30.27,NNW,340,2.7,4.9,75,0.00,,---,0.00,VWS V14.01,2013-03-27 12:17:00,
2013-03-27 08:22:00,43.9,36.5,30.27,North,2,3.6,4.0,75,0.00,,---,0.00,VWS V14.01,2013-03-27 12:22:00,
2013-03-27 08:27:00,44.1,36.3,30.27,North,8,2.7,3.6,74,0.00,,---,0.00,VWS V14.01,2013-03-27 12:27:00,
2013-03-27 08:31:00,44.2,36.5,30.27,North,2,5.4,5.4,74,0.00,,---,0.00,VWS V14.01,2013-03-27 12:31:00,
2013-03-27 08:37:00,44.2,36.5,30.27,NNE,30,3.1,3.6,74,0.00,,---,0.00,VWS V14.01,2013-03-27 12:37:00,
2013-03-27 08:42:00,44.4,36.7,30.30,North,1,3.1,4.0,74,0.00,,---,0.00,VWS V14.01,2013-03-27 12:42:00,
2013-03-27 08:47:00,46.2,38.4,30.30,North,353,3.6,8.1,74,0.00,,---,0.00,VWS V14.01,2013-03-27 12:47:00,
2013-03-27 08:52:00,45.9,37.7,30.30,North,350,2.7,3.6,73,0.00,,---,0.00,VWS V14.01,2013-03-27 12:52:00,
2013-03-27 08:57:00,46.0,37.9,30.30,NNE,17,5.4,5.4,73,0.00,,---,0.00,VWS V14.01,2013-03-27 12:57:00,
2013-03-27 09:02:00,46.2,38.1,30.30,North,357,4.5,4.5,73,0.00,,---,0.00,VWS V14.01,2013-03-27 13:02:00,
2013-03-27 09:07:00,46.4,37.9,30.30,North,350,2.7,2.7,72,0.00,,---,0.00,VWS V14.01,2013-03-27 13:07:00,
2013-03-27 09:12:00,46.6,38.0,30.30,NW,325,4.0,5.4,72,0.00,,---,0.00,VWS V14.01,2013-03-27 13:12:00,
2013-03-27 09:17:00,46.8,38.2,30.30,North,357,3.6,3.6,72,0.00,,---,0.00,VWS V14.01,2013-03-27 13:17:00,
2013-03-27 09:22:00,47.1,38.6,30.30,NNW,328,3.6,3.6,72,0.00,,---,0.00,VWS V14.01,2013-03-27 13:22:00,
2013-03-27 09:27:00,47.5,38.9,30.30,North,357,3.6,3.6,72,0.00,,---,0.00,VWS V14.01,2013-03-27 13:27:00,
2013-03-27 09:32:00,47.8,39.3,30.30,North,350,2.2,2.7,72,0.00,,---,0.00,VWS V14.01,2013-03-27 13:32:00,
2013-03-27 09:37:00,48.2,39.2,30.30,North,7,2.7,2.7,71,0.00,,---,0.00,VWS V14.01,2013-03-27 13:37:00,
2013-03-27 09:42:00,48.6,39.2,30.30,NE,48,4.0,4.0,70,0.00,,---,0.00,VWS V14.01,2013-03-27 13:42:00,
2013-03-27 09:47:00,49.6,40.3,30.30,NNE,14,3.1,4.0,70,0.00,,---,0.00,VWS V14.01,2013-03-27 13:47:00,
2013-03-27 09:52:00,56.3,45.1,30.30,NW,311,4.0,4.0,66,0.00,,---,0.00,VWS V14.01,2013-03-27 13:52:00,
2013-03-27 09:57:00,55.2,43.3,30.30,NNE,20,4.9,5.4,64,0.00,,---,0.00,VWS V14.01,2013-03-27 13:57:00,
2013-03-27 10:02:00,53.2,41.4,30.30,NNE,27,3.1,3.1,64,0.00,,---,0.00,VWS V14.01,2013-03-27 14:02:00,
2013-03-27 10:07:00,52.2,40.8,30.30,NNE,18,3.1,3.1,65,0.00,,---,0.00,VWS V14.01,2013-03-27 14:07:00,
2013-03-27 10:12:00,51.3,39.9,30.30,NNW,332,2.7,2.7,65,0.00,,---,0.00,VWS V14.01,2013-03-27 14:12:00,
2013-03-27 10:17:00,51.1,40.1,30.30,NNE,13,2.7,2.7,66,0.00,,---,0.00,VWS V14.01,2013-03-27 14:17:00,
2013-03-27 10:22:00,51.4,40.5,30.30,NW,312,2.7,2.7,66,0.00,,---,0.00,VWS V14.01,2013-03-27 14:22:00,
2013-03-27 10:27:00,51.4,40.5,30.30,NNE,15,3.1,3.1,66,0.00,,---,0.00,VWS V14.01,2013-03-27 14:27:00,
2013-03-27 10:32:00,51.4,40.1,30.30,NNW,331,2.2,2.2,65,0.00,,---,0.00,VWS V14.01,2013-03-27 14:32:00,
2013-03-27 10:37:00,51.4,40.5,30.30,NE,35,3.1,3.1,66,0.00,,---,0.00,VWS V14.01,2013-03-27 14:37:00,
2013-03-27 10:42:00,51.4,40.1,30.30,NNE,19,5.4,6.3,65,0.00,,---,0.00,VWS V14.01,2013-03-27 14:42:00,
2013-03-27 10:47:00,51.6,40.7,30.30,North,353,5.4,5.4,66,0.00,,---,0.00,VWS V14.01,2013-03-27 14:47:00,
2013-03-27 10:52:00,52.0,40.6,30.30,West,265,2.7,2.7,65,0.00,,---,0.00,VWS V14.01,2013-03-27 14:52:00,
2013-03-27 10:57:00,52.2,40.8,30.30,NW,325,3.6,3.6,65,0.00,,---,0.00,VWS V14.01,2013-03-27 14:57:00,
2013-03-27 11:02:00,52.3,40.9,30.30,WNW,287,4.0,4.0,65,0.00,,---,0.00,VWS V14.01,2013-03-27 15:02:00,
2013-03-27 11:07:00,52.3,40.9,30.30,NE,44,3.1,3.1,65,0.00,,---,0.00,VWS V14.01,2013-03-27 15:07:00,
2013-03-27 11:12:00,52.7,41.7,30.30,North,357,0.0,2.7,66,0.00,,---,0.00,VWS V14.01,2013-03-27 15:12:00,
2013-03-27 11:17:00,52.9,41.8,30.30,West,269,2.7,2.7,66,0.00,,---,0.00,VWS V14.01,2013-03-27 15:17:00,
2013-03-27 11:22:00,53.1,42.0,30.30,North,357,2.7,6.3,66,0.00,,---,0.00,VWS V14.01,2013-03-27 15:22:00,
2013-03-27 11:27:00,52.9,41.8,30.30,NW,321,3.1,5.8,66,0.00,,---,0.00,VWS V14.01,2013-03-27 15:27:00,
2013-03-27 11:32:00,53.1,42.0,30.30,NW,322,3.6,4.0,66,0.00,,---,0.00,VWS V14.01,2013-03-27 15:32:00,
2013-03-27 11:37:00,53.2,42.6,30.30,West,259,4.0,6.3,67,0.00,,---,0.00,VWS V14.01,2013-03-27 15:37:00,
2013-03-27 11:42:00,53.6,42.9,30.30,WNW,282,5.4,5.4,67,0.00,,---,0.00,VWS V14.01,2013-03-27 15:42:00,
2013-03-27 11:47:00,53.8,42.7,30.30,South,184,3.1,3.6,66,0.00,,---,0.00,VWS V14.01,2013-03-27 15:47:00,
2013-03-27 11:52:00,53.6,42.5,30.30,NNW,338,3.6,3.6,66,0.00,,---,0.00,VWS V14.01,2013-03-27 15:52:00,
2013-03-27 11:57:00,53.4,42.8,30.30,WNW,302,3.6,3.6,67,0.00,,---,0.00,VWS V14.01,2013-03-27 15:57:00,
2013-03-27 12:02:00,53.8,43.1,30.30,NNW,332,2.2,2.2,67,0.00,,---,0.00,VWS V14.01,2013-03-27 16:02:00,
2013-03-27 12:07:00,53.6,42.9,30.30,NW,322,4.0,4.0,67,0.00,,---,0.00,VWS V14.01,2013-03-27 16:07:00,
2013-03-27 12:12:00,57.0,46.2,30.30,West,273,8.1,8.1,67,0.00,,---,0.00,VWS V14.01,2013-03-27 16:12:00,
2013-03-27 12:17:00,59.2,47.8,30.30,WSW,257,4.9,5.8,66,0.00,,---,0.00,VWS V14.01,2013-03-27 16:17:00,
2013-03-27 12:22:00,62.2,50.3,30.30,West,265,3.6,5.4,65,0.00,,---,0.00,VWS V14.01,2013-03-27 16:22:00,
2013-03-27 12:27:00,59.2,47.4,30.30,SSE,167,3.6,3.6,65,0.00,,---,0.00,VWS V14.01,2013-03-27 16:27:00,
2013-03-27 12:32:00,57.9,45.8,30.30,West,275,3.6,3.6,64,0.00,,---,0.00,VWS V14.01,2013-03-27 16:32:00,
2013-03-27 12:37:00,56.7,45.0,30.30,SW,230,2.7,2.7,65,0.00,,---,0.00,VWS V14.01,2013-03-27 16:37:00,
2013-03-27 12:42:00,55.9,44.0,30.30,North,4,3.6,3.6,64,0.00,,---,0.00,VWS V14.01,2013-03-27 16:42:00,
2013-03-27 12:47:00,55.2,43.7,30.30,NW,317,0.0,2.2,65,0.00,,---,0.00,VWS V14.01,2013-03-27 16:47:00,
2013-03-27 12:52:00,55.4,44.2,30.30,NNW,337,2.2,3.1,66,0.00,,---,0.00,VWS V14.01,2013-03-27 16:52:00,
2013-03-27 12:57:00,54.9,43.7,30.30,East,79,3.1,3.1,66,0.00,,---,0.00,VWS V14.01,2013-03-27 16:57:00,
2013-03-27 13:02:00,55.4,44.2,30.30,SW,235,2.7,3.6,66,0.00,,---,0.00,VWS V14.01,2013-03-27 17:02:00,
2013-03-27 13:07:00,56.8,46.0,30.30,SW,230,2.7,4.0,67,0.00,,---,0.00,VWS V14.01,2013-03-27 17:07:00,
2013-03-27 13:12:00,57.6,46.3,30.30,West,276,8.1,8.1,66,0.00,,---,0.00,VWS V14.01,2013-03-27 17:12:00,
2013-03-27 13:17:00,60.1,48.3,30.30,WNW,297,4.9,8.1,65,0.00,,---,0.00,VWS V14.01,2013-03-27 17:17:00,
2013-03-27 13:22:00,60.1,47.9,30.30,WSW,257,4.9,4.9,64,0.00,,---,0.00,VWS V14.01,2013-03-27 17:22:00,
2013-03-27 13:27:00,60.3,48.5,30.30,ESE,116,5.8,7.6,65,0.00,,---,0.00,VWS V14.01,2013-03-27 17:27:00,
2013-03-27 13:32:00,61.5,49.2,30.30,SW,225,3.1,3.1,64,0.00,,---,0.00,VWS V14.01,2013-03-27 17:32:00,
2013-03-27 13:37:00,66.7,53.8,30.30,South,181,3.6,8.1,63,0.00,,---,0.00,VWS V14.01,2013-03-27 17:37:00,
2013-03-27 13:42:00,65.7,52.3,30.30,NW,305,5.4,5.4,62,0.00,,---,0.00,VWS V14.01,2013-03-27 17:42:00,
2013-03-27 13:47:00,63.0,49.8,30.30,ESE,110,4.9,4.9,62,0.00,,---,0.00,VWS V14.01,2013-03-27 17:47:00,
2013-03-27 13:52:00,63.1,50.3,30.30,WSW,254,9.2,9.2,63,0.00,,---,0.00,VWS V14.01,2013-03-27 17:52:00,
2013-03-27 13:57:00,63.7,50.4,30.30,North,11,3.6,5.8,62,0.00,,---,0.00,VWS V14.01,2013-03-27 17:57:00,
2013-03-27 14:02:00,62.6,49.4,30.30,NNW,343,3.6,5.8,62,0.00,,---,0.00,VWS V14.01,2013-03-27 18:02:00,
2013-03-27 14:07:00,59.9,47.3,30.30,North,3,4.0,4.0,63,0.00,,---,0.00,VWS V14.01,2013-03-27 18:07:00,
2013-03-27 14:13:00,59.2,46.6,30.27,West,271,10.5,10.5,63,0.00,,---,0.00,VWS V14.01,2013-03-27 18:13:00,
2013-03-27 14:18:00,58.5,46.3,30.27,WNW,291,5.4,5.4,64,0.00,,---,0.00,VWS V14.01,2013-03-27 18:18:00,
2013-03-27 14:23:00,58.8,46.7,30.27,NW,314,3.6,8.1,64,0.00,,---,0.00,VWS V14.01,2013-03-27 18:23:00,
2013-03-27 14:28:00,59.4,47.2,30.27,West,265,4.0,6.7,64,0.00,,---,0.00,VWS V14.01,2013-03-27 18:28:00,
2013-03-27 14:33:00,58.8,46.7,30.27,North,2,2.7,4.9,64,0.00,,---,0.00,VWS V14.01,2013-03-27 18:33:00,
2013-03-27 14:38:00,57.6,45.5,30.27,North,353,0.0,4.9,64,0.00,,---,0.00,VWS V14.01,2013-03-27 18:38:00,
2013-03-27 14:43:00,57.7,45.7,30.27,SW,229,3.6,10.5,64,0.00,,---,0.00,VWS V14.01,2013-03-27 18:43:00,
2013-03-27 14:48:00,57.7,46.1,30.27,WSW,254,3.6,10.5,65,0.00,,---,0.00,VWS V14.01,2013-03-27 18:48:00,
2013-03-27 14:53:00,58.1,46.4,30.27,North,353,5.4,6.7,65,0.00,,---,0.00,VWS V14.01,2013-03-27 18:53:00,
2013-03-27 14:58:00,57.7,46.1,30.27,West,280,5.8,5.8,65,0.00,,---,0.00,VWS V14.01,2013-03-27 18:58:00,
2013-03-27 15:03:00,56.7,45.0,30.27,WSW,248,4.0,4.0,65,0.00,,---,0.00,VWS V14.01,2013-03-27 19:03:00,
2013-03-27 15:08:00,56.8,45.6,30.27,North,357,3.1,3.1,66,0.00,,---,0.00,VWS V14.01,2013-03-27 19:08:00,
2013-03-27 15:13:00,56.5,45.3,30.24,WNW,297,3.1,3.1,66,0.00,,---,0.00,VWS V14.01,2013-03-27 19:13:00,
2013-03-27 15:18:00,56.8,46.0,30.24,WSW,254,4.0,6.3,67,0.00,,---,0.00,VWS V14.01,2013-03-27 19:18:00,
2013-03-27 15:23:00,56.5,45.7,30.24,North,1,3.1,3.6,67,0.00,,---,0.00,VWS V14.01,2013-03-27 19:23:00,
2013-03-27 15:28:00,56.5,45.7,30.24,NNE,16,5.8,5.8,67,0.00,,---,0.00,VWS V14.01,2013-03-27 19:28:00,
2013-03-27 15:33:00,56.5,45.7,30.24,North,1,7.6,8.3,67,0.00,,---,0.00,VWS V14.01,2013-03-27 19:33:00,
2013-03-27 15:38:00,56.1,45.3,30.24,West,265,3.6,3.6,67,0.00,,---,0.00,VWS V14.01,2013-03-27 19:38:00,
2013-03-27 15:43:00,56.7,46.2,30.24,WSW,248,3.1,3.6,68,0.00,,---,0.00,VWS V14.01,2013-03-27 19:43:00,
2013-03-27 15:48:00,57.0,46.6,30.24,West,262,8.1,9.6,68,0.00,,---,0.00,VWS V14.01,2013-03-27 19:48:00,
2013-03-27 15:53:00,56.7,46.2,30.24,NNW,346,2.7,5.8,68,0.00,,---,0.00,VWS V14.01,2013-03-27 19:53:00,
2013-03-27 15:58:00,56.7,46.6,30.24,West,280,6.3,6.3,69,0.00,,---,0.00,VWS V14.01,2013-03-27 19:58:00,
2013-03-27 16:03:00,56.8,46.8,30.24,West,279,7.6,8.3,69,0.00,,---,0.00,VWS V14.01,2013-03-27 20:03:00,
2013-03-27 16:08:00,56.7,46.6,30.24,NW,307,2.7,5.8,69,0.00,,---,0.00,VWS V14.01,2013-03-27 20:08:00,
2013-03-27 16:13:00,56.7,46.2,30.24,NNE,31,2.7,4.0,68,0.00,,---,0.00,VWS V14.01,2013-03-27 20:13:00,
2013-03-27 16:18:00,56.1,46.1,30.24,NNW,328,2.2,4.0,69,0.00,,---,0.00,VWS V14.01,2013-03-27 20:18:00,
2013-03-27 16:23:00,56.1,46.1,30.24,West,268,8.3,12.3,69,0.00,,---,0.00,VWS V14.01,2013-03-27 20:23:00,
2013-03-27 16:28:00,55.9,45.9,30.24,West,266,4.0,10.1,69,0.00,,---,0.00,VWS V14.01,2013-03-27 20:28:00,
2013-03-27 16:33:00,55.9,46.3,30.24,NNW,334,4.0,4.9,70,0.00,,---,0.00,VWS V14.01,2013-03-27 20:33:00,
2013-03-27 16:38:00,55.4,45.8,30.24,West,261,2.7,3.6,70,0.00,,---,0.00,VWS V14.01,2013-03-27 20:38:00,
2013-03-27 16:43:00,55.9,46.3,30.24,WNW,291,8.3,8.7,70,0.00,,---,0.00,VWS V14.01,2013-03-27 20:43:00,
2013-03-27 16:48:00,56.3,46.7,30.24,West,269,3.6,7.2,70,0.00,,---,0.00,VWS V14.01,2013-03-27 20:48:00,
2013-03-27 16:53:00,56.5,46.8,30.24,North,353,5.4,10.5,70,0.00,,---,0.00,VWS V14.01,2013-03-27 20:53:00,
2013-03-27 16:58:00,56.5,46.8,30.24,SW,228,3.6,5.8,70,0.00,,---,0.00,VWS V14.01,2013-03-27 20:58:00,
2013-03-27 17:03:00,56.8,47.2,30.24,NNW,334,3.1,3.1,70,0.00,,---,0.00,VWS V14.01,2013-03-27 21:03:00,
2013-03-27 17:08:00,56.5,46.8,30.24,WNW,286,5.4,5.4,70,0.00,,---,0.00,VWS V14.01,2013-03-27 21:08:00,
2013-03-27 17:13:00,56.1,46.5,30.24,NW,318,8.7,8.7,70,0.00,,---,0.00,VWS V14.01,2013-03-27 21:13:00,
2013-03-27 17:18:00,56.1,46.5,30.24,WNW,285,2.7,5.8,70,0.00,,---,0.00,VWS V14.01,2013-03-27 21:18:00,
2013-03-27 17:23:00,56.3,46.7,30.24,WNW,286,3.1,4.0,70,0.00,,---,0.00,VWS V14.01,2013-03-27 21:23:00,
2013-03-27 17:28:00,55.6,46.0,30.24,WNW,294,4.0,4.9,70,0.00,,---,0.00,VWS V14.01,2013-03-27 21:28:00,
2013-03-27 17:33:00,55.6,46.0,30.24,West,275,3.6,4.0,70,0.00,,---,0.00,VWS V14.01,2013-03-27 21:33:00,
2013-03-27 17:38:00,55.4,45.8,30.24,NNW,337,2.7,4.0,70,0.00,,---,0.00,VWS V14.01,2013-03-27 21:38:00,
2013-03-27 17:43:00,55.4,45.8,30.21,NNE,22,2.7,5.8,70,0.00,,---,0.00,VWS V14.01,2013-03-27 21:43:00,
2013-03-27 17:48:00,55.0,45.8,30.21,NW,316,2.2,6.7,71,0.00,,---,0.00,VWS V14.01,2013-03-27 21:48:00,
2013-03-27 17:53:00,55.4,46.2,30.21,WNW,294,4.9,8.3,71,0.00,,---,0.00,VWS V14.01,2013-03-27 21:53:00,
2013-03-27 17:58:00,55.2,46.0,30.21,South,171,3.6,3.6,71,0.00,,---,0.00,VWS V14.01,2013-03-27 21:58:00,
2013-03-27 18:03:00,55.8,46.5,30.21,WNW,295,5.4,9.6,71,0.00,,---,0.00,VWS V14.01,2013-03-27 22:03:00,
2013-03-27 18:08:00,55.6,46.3,30.21,NNW,335,2.7,3.6,71,0.00,,---,0.00,VWS V14.01,2013-03-27 22:08:00,
2013-03-27 18:13:00,55.6,46.3,30.21,West,260,3.1,7.6,71,0.00,,---,0.00,VWS V14.01,2013-03-27 22:13:00,
2013-03-27 18:18:00,55.8,46.5,30.21,West,276,4.0,5.8,71,0.00,,---,0.00,VWS V14.01,2013-03-27 22:18:00,
2013-03-27 18:23:00,55.9,46.7,30.21,WSW,246,4.9,8.7,71,0.00,,---,0.00,VWS V14.01,2013-03-27 22:23:00,
2013-03-27 18:28:00,55.8,46.1,30.21,North,357,2.7,3.6,70,0.00,,---,0.00,VWS V14.01,2013-03-27 22:28:00,
2013-03-27 18:33:00,55.0,45.8,30.21,West,262,11.0,11.0,71,0.00,,---,0.00,VWS V14.01,2013-03-27 22:33:00,
2013-03-27 18:38:00,54.9,45.7,30.21,North,1,2.2,5.8,71,0.00,,---,0.00,VWS V14.01,2013-03-27 22:38:00,
2013-03-27 18:43:00,54.7,45.5,30.21,WNW,286,7.2,7.2,71,0.00,,---,0.00,VWS V14.01,2013-03-27 22:43:00,
2013-03-27 18:48:00,54.9,45.7,30.21,WNW,302,3.1,8.7,71,0.00,,---,0.00,VWS V14.01,2013-03-27 22:48:00,
2013-03-27 18:53:00,54.7,45.5,30.21,NNE,29,2.2,4.0,71,0.00,,---,0.00,VWS V14.01,2013-03-27 22:53:00,
2013-03-27 18:58:00,54.1,45.0,30.21,WNW,287,0.0,2.7,71,0.00,,---,0.00,VWS V14.01,2013-03-27 22:58:00,
2013-03-27 19:03:00,53.8,44.6,30.21,NNE,13,0.0,2.7,71,0.00,,---,0.00,VWS V14.01,2013-03-27 23:03:00,
2013-03-27 19:08:00,53.4,44.6,30.21,NW,315,3.1,3.1,72,0.00,,---,0.00,VWS V14.01,2013-03-27 23:08:00,
2013-03-27 19:13:00,53.4,44.6,30.21,NNW,345,2.7,2.7,72,0.00,,---,0.00,VWS V14.01,2013-03-27 23:13:00,
2013-03-27 19:18:00,53.2,44.5,30.21,North,2,4.0,4.9,72,0.00,,---,0.00,VWS V14.01,2013-03-27 23:18:00,
2013-03-27 19:23:00,52.9,44.1,30.21,WNW,287,2.2,3.6,72,0.00,,---,0.00,VWS V14.01,2013-03-27 23:23:00,
2013-03-27 19:28:00,52.5,43.8,30.21,WNW,286,0.0,0.0,72,0.00,,---,0.00,VWS V14.01,2013-03-27 23:28:00,
2013-03-27 19:33:00,52.5,44.1,30.21,NNE,21,0.0,0.0,73,0.00,,---,0.00,VWS V14.01,2013-03-27 23:33:00,
2013-03-27 19:38:00,52.2,43.8,30.21,North,350,0.0,2.2,73,0.00,,---,0.00,VWS V14.01,2013-03-27 23:38:00,
2013-03-27 19:43:00,51.8,43.4,30.21,NW,313,2.2,2.7,73,0.00,,---,0.00,VWS V14.01,2013-03-27 23:43:00,
2013-03-27 19:48:00,51.6,43.6,30.21,WNW,299,0.0,0.0,74,0.00,,---,0.00,VWS V14.01,2013-03-27 23:48:00,
2013-03-27 19:53:00,51.3,43.3,30.21,West,274,0.0,0.0,74,0.00,,---,0.00,VWS V14.01,2013-03-27 23:53:00,
2013-03-27 19:58:00,51.3,43.6,30.21,WSW,255,0.0,0.0,75,0.00,,---,0.00,VWS V14.01,2013-03-27 23:58:00,
2013-03-27 20:03:00,51.1,43.4,30.21,SW,229,0.0,0.0,75,0.00,,---,0.00,VWS V14.01,2013-03-28 00:03:00,
2013-03-27 20:08:00,51.1,43.4,30.21,SW,230,0.0,0.0,75,0.00,,---,0.00,VWS V14.01,2013-03-28 00:08:00,
2013-03-27 20:13:00,50.7,43.4,30.21,SW,230,0.0,0.0,76,0.00,,---,0.00,VWS V14.01,2013-03-28 00:13:00,
2013-03-27 20:18:00,50.7,43.4,30.21,SW,229,0.0,0.0,76,0.00,,---,0.00,VWS V14.01,2013-03-28 00:18:00,
2013-03-27 20:23:00,50.4,43.1,30.21,SW,229,0.0,0.0,76,0.00,,---,0.00,VWS V14.01,2013-03-28 00:23:00,
2013-03-27 20:28:00,50.2,43.3,30.21,SW,230,0.0,0.0,77,0.00,,---,0.00,VWS V14.01,2013-03-28 00:28:00,
2013-03-27 20:33:00,50.2,43.3,30.21,SW,229,0.0,0.0,77,0.00,,---,0.00,VWS V14.01,2013-03-28 00:33:00,
2013-03-27 20:38:00,50.2,43.6,30.21,SW,230,0.0,0.0,78,0.00,,---,0.00,VWS V14.01,2013-03-28 00:38:00,
2013-03-27 20:43:00,50.0,43.4,30.24,SW,229,0.0,0.0,78,0.00,,---,0.00,VWS V14.01,2013-03-28 00:43:00,
2013-03-27 20:48:00,50.2,43.6,30.24,SW,230,0.0,0.0,78,0.00,,---,0.00,VWS V14.01,2013-03-28 00:48:00,
2013-03-27 20:53:00,50.0,43.4,30.24,SW,229,0.0,0.0,78,0.00,,---,0.00,VWS V14.01,2013-03-28 00:53:00,
2013-03-27 20:58:00,50.0,43.8,30.24,SW,229,0.0,0.0,79,0.00,,---,0.00,VWS V14.01,2013-03-28 00:58:00,
2013-03-27 21:03:00,49.6,43.4,30.24,SW,230,0.0,0.0,79,0.00,,---,0.00,VWS V14.01,2013-03-28 01:03:00,
2013-03-27 21:08:00,49.5,43.6,30.24,SW,229,0.0,0.0,80,0.00,,---,0.00,VWS V14.01,2013-03-28 01:08:00,
2013-03-27 21:13:00,49.5,43.6,30.24,SW,229,0.0,0.0,80,0.00,,---,0.00,VWS V14.01,2013-03-28 01:13:00,
2013-03-27 21:18:00,49.5,43.9,30.24,SW,229,0.0,0.0,81,0.00,,---,0.00,VWS V14.01,2013-03-28 01:18:00,
2013-03-27 21:23:00,49.5,43.9,30.24,SW,230,0.0,0.0,81,0.00,,---,0.00,VWS V14.01,2013-03-28 01:23:00,
2013-03-27 21:28:00,49.5,43.9,30.24,SW,230,0.0,0.0,81,0.00,,---,0.00,VWS V14.01,2013-03-28 01:28:00,
2013-03-27 21:33:00,49.5,43.9,30.24,SW,229,0.0,0.0,81,0.00,,---,0.00,VWS V14.01,2013-03-28 01:33:00,
2013-03-27 21:38:00,49.3,44.0,30.24,SW,229,0.0,0.0,82,0.00,,---,0.00,VWS V14.01,2013-03-28 01:38:00,
2013-03-27 21:43:00,48.9,43.7,30.24,SW,229,0.0,0.0,82,0.00,,---,0.00,VWS V14.01,2013-03-28 01:43:00,
2013-03-27 21:48:00,48.9,43.7,30.24,SW,229,0.0,0.0,82,0.00,,---,0.00,VWS V14.01,2013-03-28 01:48:00,
2013-03-27 21:53:00,48.9,43.7,30.24,SW,229,0.0,0.0,82,0.00,,---,0.00,VWS V14.01,2013-03-28 01:53:00,
2013-03-27 21:58:00,48.9,43.7,30.24,SW,230,0.0,0.0,82,0.00,,---,0.00,VWS V14.01,2013-03-28 01:58:00,
2013-03-27 22:03:00,48.9,44.0,30.24,SW,229,0.0,0.0,83,0.00,,---,0.00,VWS V14.01,2013-03-28 02:03:00,
2013-03-27 22:08:00,48.9,44.0,30.24,SW,230,0.0,0.0,83,0.00,,---,0.00,VWS V14.01,2013-03-28 02:08:00,
2013-03-27 22:13:00,48.7,43.8,30.24,SW,229,0.0,0.0,83,0.00,,---,0.00,VWS V14.01,2013-03-28 02:13:00,
2013-03-27 22:18:00,48.7,43.8,30.24,SW,230,0.0,0.0,83,0.00,,---,0.00,VWS V14.01,2013-03-28 02:18:00,
2013-03-27 22:23:00,48.7,43.8,30.24,SW,229,0.0,0.0,83,0.00,,---,0.00,VWS V14.01,2013-03-28 02:23:00,
2013-03-27 22:28:00,48.7,43.8,30.24,SW,230,0.0,0.0,83,0.00,,---,0.00,VWS V14.01,2013-03-28 02:28:00,
2013-03-27 22:33:00,48.7,43.8,30.24,SW,229,0.0,0.0,83,0.00,,---,0.00,VWS V14.01,2013-03-28 02:33:00,
2013-03-27 22:38:00,48.6,43.6,30.24,SW,229,0.0,0.0,83,0.00,,---,0.00,VWS V14.01,2013-03-28 02:38:00,
2013-03-27 22:43:00,48.6,43.6,30.24,SW,229,0.0,0.0,83,0.00,,---,0.00,VWS V14.01,2013-03-28 02:43:00,
2013-03-27 22:48:00,48.6,43.6,30.24,SW,229,0.0,0.0,83,0.00,,---,0.00,VWS V14.01,2013-03-28 02:48:00,
2013-03-27 22:53:00,48.4,43.5,30.24,SW,229,0.0,0.0,83,0.00,,---,0.00,VWS V14.01,2013-03-28 02:53:00,
2013-03-27 22:58:00,48.4,43.8,30.24,SW,229,0.0,0.0,84,0.00,,---,0.00,VWS V14.01,2013-03-28 02:58:00,
2013-03-27 23:03:00,48.4,43.8,30.24,SW,230,0.0,0.0,84,0.00,,---,0.00,VWS V14.01,2013-03-28 03:03:00,
2013-03-27 23:08:00,48.4,43.8,30.24,SW,230,0.0,0.0,84,0.00,,---,0.00,VWS V14.01,2013-03-28 03:08:00,
2013-03-27 23:13:00,48.2,43.6,30.24,SW,229,0.0,0.0,84,0.00,,---,0.00,VWS V14.01,2013-03-28 03:13:00,
2013-03-27 23:18:00,48.0,43.4,30.24,SW,229,0.0,0.0,84,0.00,,---,0.00,VWS V14.01,2013-03-28 03:18:00,
2013-03-27 23:23:00,48.0,43.4,30.24,SW,229,0.0,0.0,84,0.00,,---,0.00,VWS V14.01,2013-03-28 03:23:00,
2013-03-27 23:28:00,47.8,43.2,30.24,SW,230,0.0,0.0,84,0.00,,---,0.00,VWS V14.01,2013-03-28 03:28:00,
2013-03-27 23:33:00,47.8,43.6,30.24,SW,229,0.0,0.0,85,0.00,,---,0.00,VWS V14.01,2013-03-28 03:33:00,
2013-03-27 23:38:00,47.8,43.6,30.24,SW,229,0.0,0.0,85,0.00,,---,0.00,VWS V14.01,2013-03-28 03:38:00,
2013-03-27 23:43:00,47.7,43.4,30.24,SW,230,0.0,0.0,85,0.00,,---,0.00,VWS V14.01,2013-03-28 03:43:00,
2013-03-27 23:48:00,47.7,43.4,30.24,SW,229,0.0,0.0,85,0.00,,---,0.00,VWS V14.01,2013-03-28 03:48:00,
2013-03-27 23:53:00,47.7,43.4,30.24,SW,229,0.0,0.0,85,0.00,,---,0.00,VWS V14.01,2013-03-28 03:53:00,
2013-03-27 23:58:00,47.8,43.9,30.24,SW,230,0.0,0.0,86,0.00,,---,0.00,VWS V14.01,2013-03-28 03:58:00,